Advent, West Virginia
Current Conditions -  °F | °C
As of 9:54 PM on Friday 26 Dec 2014 (Local Time) from KCRW Reporting Station
Broken Clouds Broken Clouds  
Wind Chill: 36°   Ceiling: 21000
Heat Index: 39°   Visibility: 10mi
Dew Point: 34°   Wind: 5mph
Humidity: 82%   Direction: 110°ESE
Pressure: 30.19"   Gusts: NA
Location:  38.63°N, 81.57°W
Report Text: KCRW 270254Z 11004KT 10SM BKN210 04/01 A3019 RMK AO2 SLP228 T00390011 56021 $
Loading
Personal Weather Stations






























Interactive Weather Map New forecast layout! Learn more

10-Day Weather Forecast

Advertisements
Track Severe Weather on mobile